CXPRP LFBO-LFML
Flight info
| Callsign | CXPRP |
|---|---|
| Flight time | 0h 46m |
| Altitude | 33000 |
| Route | AMOLO DCT DEGOL DCT FJR |
| Aircraft | E55P/M-SBDFGHJ2RWY/LB2 |
Departure
| Time | 2026-05-04 19:46 |
|---|---|
| Airport | Toulouse-Blagnac Airport (LFBO) |
Arrival
| Time | 2026-05-04 20:33 |
|---|---|
| Airport | Marseille Provence Airport (LFML) |
| Time | Latitude | Longitude | Altitude | Speed | Heading |
|---|---|---|---|---|---|
| 2026-05-04 19:21 | 43.62152 | 1.38167 | 499 ft | 0 kts | 295° |
| 2026-05-04 19:42 | 43.62152 | 1.38165 | 499 ft | 1 kts | 291° |
| 2026-05-04 19:42 | 43.62154 | 1.38139 | 499 ft | 3 kts | 250° |
| 2026-05-04 19:42 | 43.62127 | 1.38111 | 499 ft | 5 kts | 206° |
| 2026-05-04 19:42 | 43.62083 | 1.38082 | 499 ft | 7 kts | 204° |
| 2026-05-04 19:43 | 43.62023 | 1.38046 | 499 ft | 9 kts | 196° |
| 2026-05-04 19:43 | 43.61959 | 1.38085 | 499 ft | 11 kts | 135° |
| 2026-05-04 19:43 | 43.61874 | 1.38118 | 499 ft | 12 kts | 195° |
| 2026-05-04 19:43 | 43.61778 | 1.38111 | 499 ft | 13 kts | 148° |
| 2026-05-04 19:44 | 43.61685 | 1.38177 | 499 ft | 13 kts | 192° |
| 2026-05-04 19:44 | 43.61630 | 1.38114 | 499 ft | 0 kts | 233° |
| 2026-05-04 19:44 | 43.61623 | 1.38103 | 499 ft | 3 kts | 233° |
| 2026-05-04 19:45 | 43.61598 | 1.38053 | 499 ft | 7 kts | 246° |
| 2026-05-04 19:45 | 43.61625 | 1.37960 | 499 ft | 11 kts | 324° |
| 2026-05-04 19:45 | 43.61640 | 1.37945 | 499 ft | 0 kts | 323° |
| 2026-05-04 19:46 | 43.61690 | 1.37894 | 499 ft | 34 kts | 322° |
| 2026-05-04 19:46 | 43.62198 | 1.37361 | 493 ft | 123 kts | 322° |
| 2026-05-04 19:46 | 43.63066 | 1.36503 | 925 ft | 156 kts | 322° |
| 2026-05-04 19:46 | 43.64113 | 1.35433 | 1493 ft | 191 kts | 320° |
| 2026-05-04 19:47 | 43.65297 | 1.34109 | 2250 ft | 211 kts | 319° |
| 2026-05-04 19:47 | 43.66563 | 1.32662 | 3038 ft | 229 kts | 319° |
| 2026-05-04 19:47 | 43.67855 | 1.31219 | 4047 ft | 233 kts | 320° |
| 2026-05-04 19:47 | 43.69311 | 1.30087 | 5136 ft | 237 kts | 344° |
| 2026-05-04 19:48 | 43.71135 | 1.30404 | 6024 ft | 256 kts | 26° |
| 2026-05-04 19:48 | 43.72582 | 1.32315 | 7126 ft | 262 kts | 51° |
| 2026-05-04 19:48 | 43.73710 | 1.34773 | 8069 ft | 271 kts | 58° |
| 2026-05-04 19:48 | 43.74730 | 1.37237 | 9284 ft | 267 kts | 59° |
| 2026-05-04 19:49 | 43.75742 | 1.39726 | 10219 ft | 273 kts | 60° |
| 2026-05-04 19:49 | 43.76795 | 1.42245 | 11009 ft | 282 kts | 60° |
| 2026-05-04 19:49 | 43.77837 | 1.44783 | 11709 ft | 293 kts | 61° |
| 2026-05-04 19:49 | 43.78838 | 1.47235 | 12647 ft | 292 kts | 61° |
| 2026-05-04 19:50 | 43.79858 | 1.49657 | 13615 ft | 289 kts | 63° |
| 2026-05-04 19:50 | 43.80786 | 1.52024 | 13920 ft | 283 kts | 62° |
| 2026-05-04 19:50 | 43.81747 | 1.54409 | 13971 ft | 284 kts | 63° |
| 2026-05-04 19:50 | 43.82421 | 1.56981 | 13976 ft | 284 kts | 77° |
| 2026-05-04 19:51 | 43.83003 | 1.59685 | 13985 ft | 287 kts | 74° |
| 2026-05-04 19:51 | 43.83600 | 1.62443 | 13976 ft | 290 kts | 75° |
| 2026-05-04 19:51 | 43.84209 | 1.65248 | 13976 ft | 292 kts | 76° |
| 2026-05-04 19:51 | 43.84836 | 1.68142 | 14036 ft | 297 kts | 75° |
| 2026-05-04 19:52 | 43.85466 | 1.71049 | 14654 ft | 306 kts | 76° |
| 2026-05-04 19:52 | 43.86068 | 1.73803 | 15755 ft | 297 kts | 76° |
| 2026-05-04 19:52 | 43.86658 | 1.76562 | 16649 ft | 296 kts | 77° |
| 2026-05-04 19:52 | 43.87259 | 1.79324 | 17305 ft | 302 kts | 77° |
| 2026-05-04 19:53 | 43.87884 | 1.82237 | 18012 ft | 307 kts | 77° |
| 2026-05-04 19:53 | 43.88540 | 1.85278 | 18781 ft | 311 kts | 77° |
| 2026-05-04 19:53 | 43.89214 | 1.88409 | 19546 ft | 315 kts | 77° |
| 2026-05-04 19:53 | 43.89909 | 1.91654 | 20274 ft | 320 kts | 77° |
| 2026-05-04 19:54 | 43.90602 | 1.94886 | 20991 ft | 324 kts | 77° |
| 2026-05-04 19:54 | 43.91298 | 1.98147 | 21686 ft | 328 kts | 77° |
| 2026-05-04 19:54 | 43.91958 | 2.01469 | 22357 ft | 329 kts | 85° |
| 2026-05-04 19:54 | 43.91733 | 2.04857 | 22989 ft | 323 kts | 109° |
| 2026-05-04 19:55 | 43.91181 | 2.08101 | 23676 ft | 327 kts | 108° |
| 2026-05-04 19:55 | 43.90622 | 2.11403 | 24360 ft | 329 kts | 107° |
| 2026-05-04 19:55 | 43.90065 | 2.14745 | 25004 ft | 333 kts | 107° |
| 2026-05-04 19:55 | 43.89506 | 2.18113 | 25648 ft | 336 kts | 108° |
| 2026-05-04 19:56 | 43.88952 | 2.21417 | 26254 ft | 339 kts | 108° |
| 2026-05-04 19:56 | 43.88411 | 2.24656 | 26849 ft | 341 kts | 108° |
| 2026-05-04 19:56 | 43.87869 | 2.27895 | 27408 ft | 344 kts | 107° |
| 2026-05-04 19:56 | 43.87311 | 2.31200 | 27944 ft | 347 kts | 108° |
| 2026-05-04 19:57 | 43.86755 | 2.34515 | 28438 ft | 351 kts | 108° |
| 2026-05-04 19:57 | 43.86187 | 2.37869 | 28962 ft | 354 kts | 108° |
| 2026-05-04 19:57 | 43.85605 | 2.41312 | 29682 ft | 351 kts | 108° |
| 2026-05-04 19:57 | 43.85026 | 2.44770 | 30389 ft | 348 kts | 108° |
| 2026-05-04 19:58 | 43.84427 | 2.48281 | 30963 ft | 350 kts | 108° |
| 2026-05-04 19:58 | 43.83817 | 2.51865 | 31540 ft | 351 kts | 108° |
| 2026-05-04 19:58 | 43.83202 | 2.55509 | 32050 ft | 353 kts | 109° |
| 2026-05-04 19:58 | 43.82636 | 2.59265 | 32540 ft | 360 kts | 103° |
| 2026-05-04 19:59 | 43.81995 | 2.62980 | 32903 ft | 360 kts | 112° |
| 2026-05-04 19:59 | 43.81272 | 2.66838 | 32948 ft | 374 kts | 110° |
| 2026-05-04 19:59 | 43.80573 | 2.70752 | 32946 ft | 378 kts | 110° |
| 2026-05-04 20:00 | 43.79198 | 2.78657 | 32947 ft | 376 kts | 110° |
| 2026-05-04 20:00 | 43.77879 | 2.86587 | 32951 ft | 391 kts | 104° |
| 2026-05-04 20:01 | 43.76397 | 2.94777 | 32964 ft | 403 kts | 110° |
| 2026-05-04 20:01 | 43.74886 | 3.03274 | 32960 ft | 417 kts | 110° |
| 2026-05-04 20:02 | 43.73343 | 3.11986 | 32963 ft | 428 kts | 110° |
| 2026-05-04 20:02 | 43.71748 | 3.20976 | 32960 ft | 429 kts | 109° |
| 2026-05-04 20:02 | 43.70953 | 3.25440 | 32954 ft | 415 kts | 109° |
| 2026-05-04 20:03 | 43.70191 | 3.29715 | 32955 ft | 403 kts | 110° |
| 2026-05-04 20:03 | 43.69426 | 3.33977 | 32959 ft | 392 kts | 110° |
| 2026-05-04 20:03 | 43.68699 | 3.38028 | 32957 ft | 383 kts | 110° |
| 2026-05-04 20:04 | 43.67249 | 3.46057 | 32962 ft | 376 kts | 110° |
| 2026-05-04 20:04 | 43.65839 | 3.53845 | 32966 ft | 383 kts | 110° |
| 2026-05-04 20:05 | 43.64342 | 3.62046 | 32965 ft | 401 kts | 110° |
| 2026-05-04 20:05 | 43.62768 | 3.70693 | 32961 ft | 416 kts | 110° |
| 2026-05-04 20:05 | 43.61933 | 3.75231 | 32968 ft | 427 kts | 110° |
| 2026-05-04 20:06 | 43.61077 | 3.79890 | 32969 ft | 440 kts | 110° |
| 2026-05-04 20:06 | 43.59320 | 3.89445 | 32974 ft | 450 kts | 110° |
| 2026-05-04 20:07 | 43.57586 | 3.99086 | 32820 ft | 438 kts | 109° |
| 2026-05-04 20:07 | 43.56209 | 4.03235 | 32219 ft | 422 kts | 132° |
| 2026-05-04 20:07 | 43.54314 | 4.07021 | 31553 ft | 429 kts | 126° |
| 2026-05-04 20:07 | 43.52654 | 4.11016 | 31010 ft | 429 kts | 124° |
| 2026-05-04 20:08 | 43.51019 | 4.15159 | 30386 ft | 429 kts | 123° |
| 2026-05-04 20:08 | 43.49395 | 4.19343 | 29638 ft | 430 kts | 123° |
| 2026-05-04 20:08 | 43.47755 | 4.23571 | 28771 ft | 433 kts | 122° |
| 2026-05-04 20:08 | 43.46108 | 4.27807 | 27939 ft | 432 kts | 122° |
| 2026-05-04 20:09 | 43.44484 | 4.31993 | 27246 ft | 427 kts | 122° |
| 2026-05-04 20:09 | 43.42962 | 4.35901 | 26582 ft | 423 kts | 122° |
| 2026-05-04 20:09 | 43.41479 | 4.39707 | 25908 ft | 420 kts | 122° |
| 2026-05-04 20:09 | 43.39971 | 4.43573 | 25214 ft | 416 kts | 122° |
| 2026-05-04 20:10 | 43.38502 | 4.47327 | 24545 ft | 413 kts | 122° |
| 2026-05-04 20:10 | 43.36970 | 4.51194 | 23882 ft | 408 kts | 122° |
| 2026-05-04 20:10 | 43.35484 | 4.54941 | 23212 ft | 405 kts | 122° |
| 2026-05-04 20:10 | 43.33975 | 4.58727 | 22483 ft | 402 kts | 122° |
| 2026-05-04 20:11 | 43.32409 | 4.62673 | 21759 ft | 399 kts | 122° |
| 2026-05-04 20:11 | 43.30895 | 4.66456 | 21098 ft | 394 kts | 123° |
| 2026-05-04 20:11 | 43.29250 | 4.70191 | 20349 ft | 386 kts | 134° |
| 2026-05-04 20:11 | 43.26801 | 4.72584 | 19579 ft | 371 kts | 163° |
| 2026-05-04 20:12 | 43.23990 | 4.73078 | 18908 ft | 359 kts | 184° |
| 2026-05-04 20:12 | 43.21210 | 4.73019 | 18213 ft | 356 kts | 182° |
| 2026-05-04 20:12 | 43.18434 | 4.72952 | 17538 ft | 352 kts | 182° |
| 2026-05-04 20:12 | 43.15664 | 4.72878 | 16845 ft | 348 kts | 183° |
| 2026-05-04 20:13 | 43.12916 | 4.72803 | 16121 ft | 345 kts | 182° |
| 2026-05-04 20:13 | 43.10198 | 4.72739 | 15426 ft | 341 kts | 184° |
| 2026-05-04 20:13 | 43.07610 | 4.73100 | 14728 ft | 343 kts | 163° |
| 2026-05-04 20:13 | 43.05417 | 4.75227 | 14014 ft | 351 kts | 133° |
| 2026-05-04 20:14 | 43.04259 | 4.78729 | 13306 ft | 361 kts | 103° |
| 2026-05-04 20:14 | 43.04528 | 4.82693 | 12646 ft | 367 kts | 73° |
| 2026-05-04 20:14 | 43.06191 | 4.85986 | 11969 ft | 370 kts | 42° |
| 2026-05-04 20:14 | 43.08810 | 4.87784 | 11297 ft | 367 kts | 14° |
| 2026-05-04 20:15 | 43.11668 | 4.88697 | 10982 ft | 355 kts | 13° |
| 2026-05-04 20:15 | 43.14405 | 4.89571 | 10952 ft | 340 kts | 13° |
| 2026-05-04 20:15 | 43.17038 | 4.90414 | 10904 ft | 325 kts | 13° |
| 2026-05-04 20:15 | 43.19507 | 4.91199 | 10648 ft | 311 kts | 13° |
| 2026-05-04 20:16 | 43.21845 | 4.91936 | 10111 ft | 314 kts | 13° |
| 2026-05-04 20:16 | 43.24218 | 4.92680 | 9618 ft | 314 kts | 13° |
| 2026-05-04 20:16 | 43.26622 | 4.93429 | 9176 ft | 310 kts | 12° |
| 2026-05-04 20:16 | 43.28974 | 4.94142 | 8726 ft | 307 kts | 13° |
| 2026-05-04 20:17 | 43.31310 | 4.94851 | 8300 ft | 304 kts | 13° |
| 2026-05-04 20:17 | 43.33725 | 4.95572 | 7795 ft | 304 kts | 13° |
| 2026-05-04 20:17 | 43.36131 | 4.96300 | 7364 ft | 301 kts | 13° |
| 2026-05-04 20:17 | 43.38525 | 4.97012 | 7006 ft | 295 kts | 13° |
| 2026-05-04 20:18 | 43.40768 | 4.97676 | 6952 ft | 280 kts | 13° |
| 2026-05-04 20:18 | 43.42903 | 4.98311 | 6950 ft | 269 kts | 13° |
| 2026-05-04 20:18 | 43.44971 | 4.98922 | 6945 ft | 252 kts | 13° |
| 2026-05-04 20:18 | 43.46889 | 4.99479 | 6948 ft | 239 kts | 8° |
| 2026-05-04 20:19 | 43.48626 | 4.98967 | 6954 ft | 220 kts | 320° |
| 2026-05-04 20:19 | 43.49813 | 4.97319 | 6883 ft | 210 kts | 307° |
| 2026-05-04 20:19 | 43.51033 | 4.95468 | 6250 ft | 239 kts | 308° |
| 2026-05-04 20:19 | 43.52306 | 4.93493 | 6120 ft | 243 kts | 307° |
| 2026-05-04 20:20 | 43.53598 | 4.91512 | 6115 ft | 242 kts | 308° |
| 2026-05-04 20:20 | 43.54855 | 4.89573 | 6039 ft | 230 kts | 307° |
| 2026-05-04 20:20 | 43.56056 | 4.87718 | 5599 ft | 235 kts | 307° |
| 2026-05-04 20:20 | 43.57207 | 4.85903 | 5135 ft | 240 kts | 307° |
| 2026-05-04 20:21 | 43.58290 | 4.84160 | 4997 ft | 230 kts | 307° |
| 2026-05-04 20:21 | 43.59310 | 4.82527 | 4977 ft | 215 kts | 308° |
| 2026-05-04 20:21 | 43.61188 | 4.79586 | 4965 ft | 189 kts | 307° |
| 2026-05-04 20:22 | 43.62039 | 4.78259 | 4901 ft | 182 kts | 307° |
| 2026-05-04 20:22 | 43.63034 | 4.77032 | 4735 ft | 188 kts | 334° |
| 2026-05-04 20:22 | 43.64309 | 4.76825 | 4554 ft | 183 kts | 20° |
| 2026-05-04 20:22 | 43.65343 | 4.77755 | 4341 ft | 167 kts | 65° |
| 2026-05-04 20:23 | 43.65574 | 4.79236 | 4109 ft | 145 kts | 108° |
| 2026-05-04 20:23 | 43.65307 | 4.80539 | 3985 ft | 131 kts | 112° |
| 2026-05-04 20:23 | 43.65070 | 4.81700 | 3930 ft | 122 kts | 112° |
| 2026-05-04 20:23 | 43.64826 | 4.82862 | 3933 ft | 130 kts | 112° |
| 2026-05-04 20:24 | 43.64523 | 4.84230 | 4001 ft | 166 kts | 112° |
| 2026-05-04 20:24 | 43.64151 | 4.85836 | 3991 ft | 174 kts | 112° |
| 2026-05-04 20:24 | 43.63769 | 4.87461 | 3988 ft | 178 kts | 112° |
| 2026-05-04 20:24 | 43.63359 | 4.89148 | 3986 ft | 180 kts | 113° |
| 2026-05-04 20:25 | 43.62973 | 4.90831 | 3991 ft | 178 kts | 112° |
| 2026-05-04 20:25 | 43.62601 | 4.92508 | 3966 ft | 178 kts | 114° |
| 2026-05-04 20:25 | 43.62049 | 4.94114 | 3967 ft | 174 kts | 123° |
| 2026-05-04 20:25 | 43.61366 | 4.95582 | 3979 ft | 171 kts | 129° |
| 2026-05-04 20:26 | 43.60596 | 4.96990 | 3951 ft | 172 kts | 129° |
| 2026-05-04 20:26 | 43.59816 | 4.98330 | 3933 ft | 171 kts | 133° |
| 2026-05-04 20:26 | 43.58997 | 4.99613 | 3954 ft | 169 kts | 134° |
| 2026-05-04 20:26 | 43.58143 | 5.00854 | 3775 ft | 177 kts | 135° |
| 2026-05-04 20:27 | 43.57271 | 5.02107 | 3599 ft | 181 kts | 135° |
| 2026-05-04 20:27 | 43.56377 | 5.03360 | 3376 ft | 185 kts | 134° |
| 2026-05-04 20:27 | 43.55496 | 5.04623 | 3109 ft | 180 kts | 133° |
| 2026-05-04 20:27 | 43.54727 | 5.05760 | 2800 ft | 142 kts | 133° |
| 2026-05-04 20:28 | 43.54082 | 5.06658 | 2671 ft | 116 kts | 134° |
| 2026-05-04 20:28 | 43.53529 | 5.07381 | 2524 ft | 103 kts | 133° |
| 2026-05-04 20:28 | 43.53030 | 5.08125 | 2406 ft | 100 kts | 128° |
| 2026-05-04 20:28 | 43.52527 | 5.08865 | 2259 ft | 98 kts | 129° |
| 2026-05-04 20:29 | 43.52003 | 5.09598 | 2140 ft | 102 kts | 129° |
| 2026-05-04 20:29 | 43.51448 | 5.10343 | 1984 ft | 101 kts | 130° |
| 2026-05-04 20:29 | 43.50918 | 5.11101 | 1854 ft | 108 kts | 128° |
| 2026-05-04 20:29 | 43.50404 | 5.11841 | 1654 ft | 105 kts | 129° |
| 2026-05-04 20:30 | 43.49917 | 5.12577 | 1493 ft | 100 kts | 126° |
| 2026-05-04 20:30 | 43.49451 | 5.13284 | 1363 ft | 99 kts | 127° |
| 2026-05-04 20:30 | 43.48943 | 5.13987 | 1265 ft | 105 kts | 128° |
| 2026-05-04 20:30 | 43.48415 | 5.14774 | 1139 ft | 113 kts | 127° |
| 2026-05-04 20:31 | 43.47812 | 5.15602 | 969 ft | 117 kts | 129° |
| 2026-05-04 20:31 | 43.47219 | 5.16426 | 784 ft | 110 kts | 127° |
| 2026-05-04 20:31 | 43.46649 | 5.17242 | 596 ft | 107 kts | 128° |
| 2026-05-04 20:31 | 43.46109 | 5.18048 | 441 ft | 104 kts | 128° |
| 2026-05-04 20:32 | 43.45548 | 5.18848 | 293 ft | 107 kts | 129° |
| 2026-05-04 20:32 | 43.44974 | 5.19642 | 137 ft | 107 kts | 129° |
| 2026-05-04 20:32 | 43.44431 | 5.20421 | 9 ft | 96 kts | 129° |
| 2026-05-04 20:32 | 43.43994 | 5.21049 | 12 ft | 62 kts | 134° |
| 2026-05-04 20:33 | 43.43738 | 5.21410 | 21 ft | 46 kts | 134° |
| 2026-05-04 20:33 | 43.43514 | 5.21728 | 31 ft | 41 kts | 134° |
| 2026-05-04 20:33 | 43.43339 | 5.22011 | 40 ft | 33 kts | 104° |
| 2026-05-04 20:33 | 43.43335 | 5.22192 | 44 ft | 0 kts | 87° |
| 2026-05-04 20:34 | 43.43335 | 5.22201 | 44 ft | 3 kts | 82° |
| 2026-05-04 20:34 | 43.43362 | 5.22266 | 44 ft | 11 kts | 37° |
| 2026-05-04 20:34 | 43.43476 | 5.22239 | 40 ft | 16 kts | 326° |
| 2026-05-04 20:34 | 43.43510 | 5.22208 | 38 ft | 2 kts | 332° |
| 2026-05-04 20:35 | 43.43547 | 5.22182 | 36 ft | 8 kts | 333° |
| 2026-05-04 20:35 | 43.43623 | 5.22119 | 31 ft | 16 kts | 330° |
| 2026-05-04 20:35 | 43.43762 | 5.22004 | 25 ft | 25 kts | 323° |
| 2026-05-04 20:35 | 43.43912 | 5.21798 | 18 ft | 31 kts | 316° |
| 2026-05-04 20:36 | 43.43937 | 5.21577 | 15 ft | 25 kts | 226° |
| 2026-05-04 20:36 | 43.43995 | 5.21383 | 14 ft | 24 kts | 314° |
| 2026-05-04 20:36 | 43.44119 | 5.21202 | 12 ft | 24 kts | 314° |
| 2026-05-04 20:36 | 43.44220 | 5.21223 | 10 ft | 13 kts | 59° |
| 2026-05-04 20:37 | 43.44270 | 5.21274 | 8 ft | 8 kts | 346° |
| 2026-05-04 20:37 | 43.44333 | 5.21251 | 7 ft | 6 kts | 51° |
| 2026-05-04 20:37 | 43.44339 | 5.21263 | 7 ft | 2 kts | 54° |
| 2026-05-04 20:37 | 43.44340 | 5.21266 | 7 ft | 0 kts | 58° |